createdAt,value
2019-06-15T00:02:18.868Z,60.55
2019-06-15T00:04:49.282Z,60.50
2019-06-15T00:07:19.730Z,60.65
2019-06-15T00:09:50.163Z,60.79
2019-06-15T00:12:20.641Z,60.82
2019-06-15T00:14:51.014Z,60.73
2019-06-15T00:17:21.582Z,60.93
2019-06-15T00:19:51.986Z,60.90
2019-06-15T00:22:22.425Z,60.96
2019-06-15T00:24:53.029Z,61.01
2019-06-15T00:27:23.741Z,60.97
2019-06-15T00:29:54.170Z,60.88
2019-06-15T00:32:24.508Z,60.97
2019-06-15T00:34:54.945Z,61.18
2019-06-15T00:37:25.314Z,61.29
2019-06-15T00:39:55.661Z,61.38
2019-06-15T00:42:26.356Z,61.65
2019-06-15T00:44:56.844Z,61.72
2019-06-15T00:47:27.280Z,61.89
2019-06-15T00:49:57.905Z,62.14
2019-06-15T00:52:28.234Z,62.09
2019-06-15T00:54:58.546Z,62.30
2019-06-15T00:57:28.997Z,62.17
2019-06-15T01:00:01.908Z,62.37
2019-06-15T01:02:32.311Z,62.55
2019-06-15T01:05:02.780Z,62.87
2019-06-15T01:07:33.401Z,63.25
2019-06-15T01:10:03.852Z,63.27
2019-06-15T01:12:34.323Z,63.52
2019-06-15T01:15:04.975Z,63.75
2019-06-15T01:17:35.765Z,64.11
2019-06-15T01:20:06.632Z,64.47
2019-06-15T01:22:37.363Z,64.51
2019-06-15T01:25:09.234Z,64.72
2019-06-15T01:27:40.170Z,64.95
2019-06-15T01:30:11.720Z,65.23
2019-06-15T01:32:42.146Z,65.17
2019-06-15T01:35:12.833Z,65.65
2019-06-15T01:37:43.301Z,65.79
2019-06-15T01:40:14.189Z,66.12
2019-06-15T01:42:44.925Z,66.39
2019-06-15T01:45:15.595Z,66.42
2019-06-15T01:47:46.244Z,66.57
2019-06-15T01:50:17.012Z,66.44
2019-06-15T01:52:47.769Z,66.51
2019-06-15T01:55:21.161Z,66.57
2019-06-15T01:57:50.430Z,66.55
2019-06-15T02:00:23.148Z,66.78
2019-06-15T02:02:54.512Z,66.80
2019-06-15T02:05:25.092Z,66.69
2019-06-15T02:07:55.479Z,66.58
2019-06-15T02:10:31.381Z,66.76
2019-06-15T02:13:02.063Z,66.81
2019-06-15T02:15:32.791Z,67.02
2019-06-15T02:18:03.387Z,67.37
2019-06-15T02:20:33.860Z,67.78
2019-06-15T02:23:04.162Z,67.95
2019-06-15T02:25:36.601Z,67.74
2019-06-15T02:28:07.295Z,67.79
2019-06-15T02:30:37.964Z,68.11
2019-06-15T02:33:08.332Z,68.11
2019-06-15T02:35:38.619Z,68.01
2019-06-15T02:38:09.028Z,68.03
2019-06-15T02:40:39.474Z,68.05
2019-06-15T02:43:09.800Z,67.97
2019-06-15T02:45:40.215Z,67.99
2019-06-15T02:48:10.594Z,67.90
2019-06-15T02:50:40.995Z,67.71
2019-06-15T02:53:11.445Z,67.83
2019-06-15T02:55:50.602Z,67.67
2019-06-15T02:58:14.399Z,67.68
2019-06-15T03:01:00.919Z,67.30
2019-06-15T03:03:31.454Z,67.09
2019-06-15T03:06:02.223Z,66.61
2019-06-15T03:08:32.632Z,66.45
2019-06-15T03:11:03.067Z,65.77
2019-06-15T03:13:35.186Z,64.89
2019-06-15T03:16:06.361Z,63.68
2019-06-15T03:18:36.724Z,62.71
2019-06-15T03:21:07.248Z,62.01
2019-06-15T03:23:37.607Z,61.48
2019-06-15T03:26:08.348Z,60.71
2019-06-15T03:28:38.767Z,60.72
2019-06-15T03:31:09.388Z,59.97
2019-06-15T03:33:39.719Z,59.39
2019-06-15T03:36:10.092Z,58.57
2019-06-15T03:38:40.469Z,58.59
2019-06-15T03:41:10.849Z,57.80
2019-06-15T03:43:41.188Z,57.67
2019-06-15T03:46:11.589Z,57.64
2019-06-15T03:48:42.035Z,57.48
2019-06-15T03:51:12.353Z,56.28
2019-06-15T03:53:42.879Z,56.01
2019-06-15T03:56:21.691Z,56.23
2019-06-15T03:58:45.741Z,55.55
2019-06-15T04:01:33.736Z,55.19
2019-06-15T04:04:04.060Z,54.73
2019-06-15T04:06:34.451Z,54.84
2019-06-15T04:09:06.171Z,55.07
2019-06-15T04:11:36.590Z,55.26
2019-06-15T04:14:07.207Z,55.83
2019-06-15T04:16:37.717Z,58.25
2019-06-15T04:19:08.026Z,58.41
2019-06-15T04:21:38.660Z,56.82
2019-06-15T04:24:09.186Z,55.63
2019-06-15T04:26:39.506Z,55.76
2019-06-15T04:29:09.851Z,54.44
2019-06-15T04:31:40.236Z,54.58
2019-06-15T04:34:10.799Z,53.60
2019-06-15T04:36:41.085Z,52.72
2019-06-15T04:39:11.565Z,52.44
2019-06-15T04:41:42.101Z,52.14
2019-06-15T04:44:12.438Z,52.34
2019-06-15T04:46:42.857Z,52.12
2019-06-15T04:49:13.634Z,51.36
2019-06-15T04:51:44.002Z,50.27
2019-06-15T04:54:15.433Z,50.71
2019-06-15T04:56:50.889Z,51.74
2019-06-15T04:59:17.807Z,51.02
2019-06-15T05:01:48.213Z,50.10
2019-06-15T05:04:18.563Z,50.75
2019-06-15T05:06:48.945Z,50.02
2019-06-15T05:09:19.483Z,50.02
2019-06-15T05:11:49.982Z,50.07
2019-06-15T05:14:20.298Z,49.92
2019-06-15T05:16:50.860Z,52.21
2019-06-15T05:19:21.273Z,55.51
2019-06-15T05:21:51.694Z,57.87
2019-06-15T05:24:22.171Z,58.51
2019-06-15T05:27:05.586Z,57.98
2019-06-15T05:29:24.588Z,55.93
2019-06-15T05:31:55.096Z,53.03
2019-06-15T05:34:25.503Z,50.91
2019-06-15T05:36:55.921Z,49.32
2019-06-15T05:39:26.499Z,48.17
2019-06-15T05:41:56.895Z,45.88
2019-06-15T05:44:27.242Z,44.81
2019-06-15T05:46:57.863Z,45.19
2019-06-15T05:49:28.212Z,45.46
2019-06-15T05:51:58.606Z,45.42
2019-06-15T05:54:29.242Z,44.35
2019-06-15T05:56:59.663Z,45.82
2019-06-15T05:59:30.508Z,44.49
2019-06-15T06:02:01.130Z,43.25
2019-06-15T06:04:31.521Z,43.18
2019-06-15T06:07:02.875Z,43.81
2019-06-15T06:09:33.350Z,43.97
2019-06-15T06:12:03.702Z,46.47
2019-06-15T06:14:34.121Z,49.48
2019-06-15T06:17:04.906Z,49.04
2019-06-15T06:19:35.261Z,47.55
2019-06-15T06:22:05.559Z,46.13
2019-06-15T06:24:36.058Z,46.94
2019-06-15T06:27:06.540Z,47.43
2019-06-15T06:29:36.890Z,48.89
2019-06-15T06:32:07.316Z,49.89
2019-06-15T06:34:37.729Z,50.61
2019-06-15T06:37:08.348Z,48.68
2019-06-15T06:39:38.742Z,46.80
2019-06-15T06:42:09.045Z,43.74
2019-06-15T06:44:39.561Z,41.62
2019-06-15T06:47:09.971Z,41.53
2019-06-15T06:49:56.855Z,45.11
2019-06-15T06:52:27.274Z,48.09
2019-06-15T06:54:57.681Z,50.36
2019-06-15T06:57:28.544Z,52.38
2019-06-15T06:59:59.408Z,53.73
2019-06-15T07:02:31.356Z,54.43
2019-06-15T07:05:01.750Z,55.96
2019-06-15T07:07:32.169Z,56.15
2019-06-15T07:10:02.622Z,56.84
2019-06-15T07:12:32.995Z,57.16
2019-06-15T07:15:04.845Z,57.58
2019-06-15T07:17:35.358Z,57.72
2019-06-15T07:20:06.813Z,57.07
2019-06-15T07:22:37.311Z,56.59
2019-06-15T07:25:07.962Z,55.62
2019-06-15T07:27:38.407Z,55.63
2019-06-15T07:30:11.030Z,55.50
2019-06-15T07:32:41.435Z,56.22
2019-06-15T07:35:11.933Z,53.94
2019-06-15T07:37:42.333Z,54.50
2019-06-15T07:40:13.561Z,55.38
2019-06-15T07:42:45.261Z,56.68
2019-06-15T07:45:16.020Z,55.97
2019-06-15T07:47:46.721Z,54.92
2019-06-15T07:50:17.740Z,55.17
2019-06-15T07:52:56.405Z,56.95
2019-06-15T07:55:27.520Z,57.32
2019-06-15T07:57:58.015Z,56.42
2019-06-15T08:00:28.437Z,56.17
2019-06-15T08:02:59.792Z,56.48
2019-06-15T08:05:30.195Z,56.98
2019-06-15T08:08:00.995Z,55.75
2019-06-15T08:10:31.409Z,56.49
2019-06-15T08:13:01.982Z,55.74
2019-06-15T08:15:32.402Z,54.95
2019-06-15T08:18:03.142Z,53.66
2019-06-15T08:20:35.155Z,54.22
2019-06-15T08:23:05.779Z,51.50
2019-06-15T08:25:36.317Z,50.79
2019-06-15T08:28:07.070Z,49.99
2019-06-15T08:30:42.319Z,49.67
2019-06-15T08:33:12.788Z,48.34
2019-06-15T08:35:43.123Z,48.57
2019-06-15T08:38:13.628Z,49.77
2019-06-15T08:40:44.096Z,49.20
2019-06-15T08:43:14.404Z,50.30
2019-06-15T08:45:44.810Z,50.18
2019-06-15T08:48:16.305Z,48.98
2019-06-15T08:50:46.628Z,48.77
2019-06-15T08:53:17.077Z,48.80
2019-06-15T08:55:47.431Z,49.49
2019-06-15T08:58:19.969Z,47.98
2019-06-15T09:00:50.424Z,47.21
2019-06-15T09:03:20.793Z,47.95
2019-06-15T09:05:51.128Z,47.76
2019-06-15T09:08:21.664Z,46.37
2019-06-15T09:10:53.055Z,45.80
2019-06-15T09:13:23.422Z,45.10
2019-06-15T09:15:54.537Z,46.08
2019-06-15T09:18:25.110Z,46.33
2019-06-15T09:20:55.479Z,45.97
2019-06-15T09:23:25.910Z,45.88
2019-06-15T09:25:56.541Z,45.28
2019-06-15T09:28:27.052Z,45.68
2019-06-15T09:30:57.519Z,46.18
2019-06-15T09:33:27.910Z,46.12
2019-06-15T09:35:58.236Z,45.74
2019-06-15T09:38:28.783Z,47.20
2019-06-15T09:40:59.129Z,46.51
2019-06-15T09:43:29.473Z,45.31
2019-06-15T09:45:59.942Z,45.15
2019-06-15T09:48:30.411Z,44.80
2019-06-15T09:51:00.747Z,45.09
2019-06-15T09:53:31.268Z,44.80
2019-06-15T09:56:01.687Z,45.01
2019-06-15T09:58:32.129Z,45.47
2019-06-15T10:01:02.552Z,46.27
2019-06-15T10:03:32.879Z,45.55
2019-06-15T10:06:03.204Z,46.09
2019-06-15T10:08:33.720Z,45.40
2019-06-15T10:11:04.071Z,44.49
2019-06-15T10:13:34.691Z,44.79
2019-06-15T10:16:05.177Z,45.24
2019-06-15T10:18:38.689Z,45.15
2019-06-15T10:21:07.575Z,45.58
2019-06-15T10:23:37.957Z,46.27
2019-06-15T10:26:08.475Z,46.45
2019-06-15T10:28:38.812Z,45.65
2019-06-15T10:31:09.205Z,46.29
2019-06-15T10:33:39.575Z,45.19
2019-06-15T10:36:09.939Z,45.06
2019-06-15T10:38:40.457Z,45.29
2019-06-15T10:41:11.206Z,45.73
2019-06-15T10:43:41.553Z,46.56
2019-06-15T10:46:12.081Z,47.17
2019-06-15T10:48:42.482Z,46.68
2019-06-15T10:51:12.830Z,44.41
2019-06-15T10:53:43.273Z,45.77
2019-06-15T10:56:13.681Z,45.83
2019-06-15T10:58:44.131Z,44.42
2019-06-15T11:01:14.533Z,45.67
2019-06-15T11:03:45.278Z,44.26
2019-06-15T11:06:15.617Z,45.55
2019-06-15T11:08:46.280Z,45.38
2019-06-15T11:11:23.183Z,45.91
2019-06-15T11:13:53.637Z,44.01
2019-06-15T11:16:24.043Z,44.26
2019-06-15T11:18:54.478Z,44.77
2019-06-15T11:21:25.014Z,45.90
2019-06-15T11:23:55.354Z,43.88
2019-06-15T11:26:26.078Z,44.34
2019-06-15T11:28:56.586Z,44.19
2019-06-15T11:31:26.911Z,42.69
2019-06-15T11:33:57.241Z,43.04
2019-06-15T11:36:27.621Z,44.07
2019-06-15T11:38:58.057Z,43.21
2019-06-15T11:41:28.431Z,42.42
2019-06-15T11:43:58.858Z,42.20
2019-06-15T11:46:29.275Z,42.79
2019-06-15T11:48:59.637Z,45.95
2019-06-15T11:51:30.158Z,47.52
2019-06-15T11:54:00.611Z,46.48
2019-06-15T11:56:30.975Z,46.40
2019-06-15T11:59:01.354Z,47.67
2019-06-15T12:01:31.837Z,45.38
2019-06-15T12:04:02.124Z,46.17
2019-06-15T12:06:32.565Z,49.89
2019-06-15T12:09:02.991Z,48.64
2019-06-15T12:11:33.280Z,48.54
2019-06-15T12:14:03.875Z,46.81
2019-06-15T12:16:34.379Z,47.69
2019-06-15T12:19:04.716Z,47.75
2019-06-15T12:21:35.204Z,46.40
2019-06-15T12:24:05.788Z,45.19
2019-06-15T12:26:38.368Z,45.59
2019-06-15T12:29:08.888Z,44.86
2019-06-15T12:31:39.387Z,44.41
2019-06-15T12:34:09.804Z,44.38
2019-06-15T12:36:40.307Z,46.18
2019-06-15T12:39:10.613Z,45.65
2019-06-15T12:41:40.962Z,43.87
2019-06-15T12:44:11.506Z,42.74
2019-06-15T12:46:42.025Z,43.22
2019-06-15T12:49:12.410Z,42.30
2019-06-15T12:51:42.859Z,41.69
2019-06-15T12:54:13.689Z,41.09
2019-06-15T12:56:44.079Z,41.22
2019-06-15T12:59:14.593Z,41.56
2019-06-15T13:01:45.082Z,41.73
2019-06-15T13:04:15.452Z,40.64
2019-06-15T13:06:46.291Z,42.32
2019-06-15T13:09:16.699Z,42.84
2019-06-15T13:11:47.259Z,41.03
2019-06-15T13:14:17.700Z,42.73
2019-06-15T13:16:49.025Z,45.42
2019-06-15T13:19:19.355Z,45.10
2019-06-15T13:21:49.850Z,45.15
2019-06-15T13:24:20.225Z,42.35
2019-06-15T13:26:50.640Z,44.49
2019-06-15T13:29:21.056Z,44.68
2019-06-15T13:31:51.447Z,45.35
2019-06-15T13:34:21.795Z,43.55
2019-06-15T13:36:52.257Z,41.16
2019-06-15T13:39:22.694Z,42.77
2019-06-15T13:41:52.992Z,42.64
2019-06-15T13:44:23.498Z,41.79
2019-06-15T13:46:53.821Z,42.05
2019-06-15T13:49:24.218Z,42.45
2019-06-15T13:51:54.747Z,42.58
2019-06-15T13:54:25.125Z,42.45
2019-06-15T13:56:55.599Z,42.17
2019-06-15T13:59:26.159Z,42.66
2019-06-15T14:01:56.646Z,42.55
2019-06-15T14:04:27.059Z,42.63
2019-06-15T14:06:57.500Z,42.48
2019-06-15T14:09:27.868Z,42.66
2019-06-15T14:11:58.626Z,43.37
2019-06-15T14:14:29.093Z,43.03
2019-06-15T14:16:59.408Z,44.77
2019-06-15T14:19:29.873Z,43.94
2019-06-15T14:22:00.323Z,44.97
2019-06-15T14:24:30.657Z,45.07
2019-06-15T14:27:01.508Z,45.21
2019-06-15T14:29:32.005Z,46.93
2019-06-15T14:32:02.841Z,46.68
2019-06-15T14:34:33.629Z,46.07
2019-06-15T14:37:04.085Z,48.28
2019-06-15T14:39:34.488Z,46.49
2019-06-15T14:42:04.799Z,47.95
2019-06-15T14:44:35.388Z,48.41
2019-06-15T14:47:05.831Z,48.60
2019-06-15T14:49:36.154Z,48.99
2019-06-15T14:52:06.785Z,49.67
2019-06-15T14:54:37.371Z,49.93
2019-06-15T14:57:08.152Z,48.90
2019-06-15T14:59:52.007Z,49.81
2019-06-15T15:02:14.028Z,49.60
2019-06-15T15:04:42.996Z,48.70
2019-06-15T15:07:13.367Z,49.80
2019-06-15T15:09:45.883Z,50.15
2019-06-15T15:12:16.201Z,48.64
2019-06-15T15:14:46.952Z,48.21
2019-06-15T15:17:17.463Z,48.43
2019-06-15T15:19:47.932Z,48.92
2019-06-15T15:22:18.281Z,48.64
2019-06-15T15:24:48.812Z,48.08
2019-06-15T15:27:19.230Z,47.86
2019-06-15T15:29:49.670Z,45.76
2019-06-15T15:32:27.022Z,45.58
2019-06-15T15:34:52.401Z,45.81
2019-06-15T15:37:22.722Z,46.29
2019-06-15T15:39:53.006Z,45.99
2019-06-15T15:42:26.381Z,46.65
2019-06-15T15:44:56.484Z,46.31
2019-06-15T15:47:27.667Z,46.12
2019-06-15T15:49:58.294Z,46.64
2019-06-15T15:52:28.785Z,46.82
2019-06-15T15:54:59.261Z,47.32
2019-06-15T15:57:29.590Z,47.61
2019-06-15T15:59:59.958Z,47.83
2019-06-15T16:02:44.618Z,48.36
2019-06-15T16:05:02.609Z,48.66
2019-06-15T16:07:33.071Z,49.02
2019-06-15T16:10:06.103Z,49.61
2019-06-15T16:12:36.340Z,49.81
2019-06-15T16:15:07.507Z,50.52
2019-06-15T16:17:38.254Z,50.96
2019-06-15T16:20:17.235Z,51.54
2019-06-15T16:22:48.556Z,51.68
2019-06-15T16:25:18.902Z,51.98
2019-06-15T16:27:49.377Z,52.43
2019-06-15T16:30:55.694Z,52.77
2019-06-15T16:33:04.177Z,53.13
2019-06-15T16:35:33.007Z,53.36
2019-06-15T16:38:03.511Z,53.26
2019-06-15T16:40:41.247Z,53.41
2019-06-15T16:43:11.666Z,54.23
2019-06-15T16:45:41.982Z,54.96
2019-06-15T16:48:12.927Z,54.82
2019-06-15T16:50:43.338Z,54.96
2019-06-15T16:53:13.845Z,54.89
2019-06-15T16:55:46.600Z,54.63
2019-06-15T16:58:16.462Z,54.67
2019-06-15T17:00:47.708Z,53.39
2019-06-15T17:03:24.841Z,54.32
2019-06-15T17:05:50.387Z,55.04
2019-06-15T17:08:20.762Z,54.96
2019-06-15T17:10:51.320Z,54.22
2019-06-15T17:13:21.833Z,54.49
2019-06-15T17:15:52.290Z,54.48
2019-06-15T17:18:22.790Z,53.74
2019-06-15T17:20:56.407Z,52.95
2019-06-15T17:23:27.685Z,52.65
2019-06-15T17:25:58.370Z,52.75
2019-06-15T17:28:28.693Z,52.66
2019-06-15T17:30:59.098Z,52.91
2019-06-15T17:33:37.605Z,52.81
2019-06-15T17:36:03.306Z,51.89
2019-06-15T17:38:36.667Z,51.95
2019-06-15T17:41:06.282Z,51.25
2019-06-15T17:43:36.706Z,51.45
2019-06-15T17:46:07.524Z,51.14
2019-06-15T17:48:37.796Z,51.04
2019-06-15T17:51:08.152Z,51.04
2019-06-15T17:53:38.612Z,50.72
2019-06-15T17:56:09.559Z,50.25
2019-06-15T17:58:39.902Z,49.83
2019-06-15T18:01:10.387Z,49.40
2019-06-15T18:03:50.349Z,48.90
2019-06-15T18:06:12.881Z,48.62
2019-06-15T18:08:43.409Z,48.58
2019-06-15T18:11:16.400Z,48.60
2019-06-15T18:13:47.264Z,49.10
2019-06-15T18:16:17.900Z,49.09
2019-06-15T18:18:48.358Z,49.49
2019-06-15T18:21:19.086Z,49.34
2019-06-15T18:23:49.713Z,49.65
2019-06-15T18:26:20.165Z,49.11
2019-06-15T18:28:50.495Z,49.57
2019-06-15T18:31:21.032Z,49.68
2019-06-15T18:34:08.322Z,50.08
2019-06-15T18:36:26.085Z,50.46
2019-06-15T18:38:57.543Z,50.64
2019-06-15T18:41:28.465Z,50.85
2019-06-15T18:43:58.816Z,51.15
2019-06-15T18:46:29.250Z,51.48
2019-06-15T18:48:59.602Z,51.49
2019-06-15T18:51:30.118Z,51.54
2019-06-15T18:54:00.670Z,51.49
2019-06-15T18:56:31.470Z,52.29
2019-06-15T18:59:02.058Z,51.62
2019-06-15T19:01:32.679Z,52.22
2019-06-15T19:04:03.346Z,52.32
2019-06-15T19:06:37.017Z,52.86
2019-06-15T19:09:09.713Z,52.55
2019-06-15T19:11:40.121Z,52.49
2019-06-15T19:14:10.494Z,52.60
2019-06-15T19:16:41.066Z,52.17
2019-06-15T19:19:11.766Z,52.70
2019-06-15T19:21:42.337Z,52.95
2019-06-15T19:24:13.025Z,53.35
2019-06-15T19:26:45.913Z,55.24
2019-06-15T19:29:17.086Z,56.82
2019-06-15T19:31:47.808Z,58.09
2019-06-15T19:34:18.219Z,58.96
2019-06-15T19:36:48.798Z,59.99
2019-06-15T19:39:19.179Z,60.39
2019-06-15T19:41:49.878Z,60.50
2019-06-15T19:44:21.307Z,60.21
2019-06-15T19:46:51.746Z,60.18
2019-06-15T19:49:22.254Z,60.24
2019-06-15T19:51:53.006Z,60.85
2019-06-15T19:54:26.234Z,61.11
2019-06-15T19:56:56.477Z,60.94
2019-06-15T19:59:27.007Z,61.76
2019-06-15T20:01:57.631Z,61.93
2019-06-15T20:04:27.959Z,62.14
2019-06-15T20:06:58.491Z,62.00
2019-06-15T20:09:29.018Z,62.65
2019-06-15T20:11:59.360Z,63.16
2019-06-15T20:14:29.697Z,63.47
2019-06-15T20:17:00.499Z,64.29
2019-06-15T20:19:30.864Z,64.27
2019-06-15T20:22:01.440Z,64.02
2019-06-15T20:24:32.059Z,64.00
2019-06-15T20:27:02.485Z,64.23
2019-06-15T20:29:33.376Z,64.30
2019-06-15T20:32:06.381Z,64.05
2019-06-15T20:34:37.051Z,63.88
2019-06-15T20:37:07.814Z,64.54
2019-06-15T20:39:38.273Z,64.81
2019-06-15T20:42:08.723Z,65.29
2019-06-15T20:44:39.245Z,65.72
2019-06-15T20:47:09.610Z,65.62
2019-06-15T20:49:39.926Z,65.86
2019-06-15T20:52:10.548Z,65.62
2019-06-15T20:54:40.967Z,65.86
2019-06-15T20:57:11.470Z,66.17
2019-06-15T20:59:41.986Z,66.22
2019-06-15T21:02:12.359Z,66.34
2019-06-15T21:04:42.871Z,66.79
2019-06-15T21:07:16.041Z,66.34
2019-06-15T21:09:46.764Z,66.14
2019-06-15T21:12:17.283Z,65.74
2019-06-15T21:14:47.882Z,66.05
2019-06-15T21:17:18.288Z,66.12
2019-06-15T21:19:48.720Z,65.92
2019-06-15T21:22:19.198Z,65.54
2019-06-15T21:24:50.845Z,65.23
2019-06-15T21:27:21.173Z,65.21
2019-06-15T21:29:51.698Z,65.03
2019-06-15T21:32:22.152Z,64.93
2019-06-15T21:34:52.556Z,64.85
2019-06-15T21:37:23.044Z,64.63
2019-06-15T21:39:53.381Z,64.27
2019-06-15T21:42:23.696Z,64.24
2019-06-15T21:44:56.232Z,64.16
2019-06-15T21:47:26.260Z,63.83
2019-06-15T21:49:56.604Z,63.72
2019-06-15T21:52:27.160Z,63.66
2019-06-15T21:54:57.590Z,63.31
2019-06-15T21:57:27.984Z,63.35
2019-06-15T21:59:58.732Z,63.49
2019-06-15T22:02:29.136Z,63.33
2019-06-15T22:04:59.613Z,63.56
2019-06-15T22:07:30.508Z,63.51
2019-06-15T22:10:00.896Z,63.67
2019-06-15T22:12:31.298Z,63.67
2019-06-15T22:15:01.693Z,63.86
2019-06-15T22:17:32.012Z,63.98
2019-06-15T22:20:02.348Z,64.17
2019-06-15T22:22:32.755Z,64.28
2019-06-15T22:25:03.076Z,64.31
2019-06-15T22:27:41.006Z,64.52
2019-06-15T22:30:12.091Z,64.46
2019-06-15T22:32:42.416Z,64.53
2019-06-15T22:35:13.107Z,64.40
2019-06-15T22:37:43.457Z,64.53
2019-06-15T22:40:16.388Z,64.35
2019-06-15T22:42:47.011Z,64.61
2019-06-15T22:45:17.778Z,64.82
2019-06-15T22:47:48.275Z,64.61
2019-06-15T22:50:19.102Z,64.42
2019-06-15T22:52:49.436Z,64.55
2019-06-15T22:55:19.784Z,64.38
2019-06-15T22:57:50.164Z,64.48
2019-06-15T23:00:20.497Z,64.50
2019-06-15T23:02:50.817Z,64.58
2019-06-15T23:05:21.255Z,64.60
2019-06-15T23:07:51.715Z,64.69
2019-06-15T23:10:22.124Z,64.82
2019-06-15T23:12:52.559Z,65.00
2019-06-15T23:15:22.971Z,65.15
2019-06-15T23:17:53.286Z,65.30
2019-06-15T23:20:26.832Z,65.54
2019-06-15T23:22:56.202Z,65.76
2019-06-15T23:25:27.452Z,65.68
2019-06-15T23:27:58.028Z,65.51
2019-06-15T23:30:28.311Z,65.53
2019-06-15T23:32:58.690Z,65.53
2019-06-15T23:35:34.065Z,65.48
2019-06-15T23:38:06.485Z,65.54
2019-06-15T23:40:36.428Z,65.33
2019-06-15T23:43:06.780Z,65.11
2019-06-15T23:45:37.120Z,64.62
2019-06-15T23:48:07.546Z,64.01
2019-06-15T23:50:37.939Z,63.97
2019-06-15T23:53:08.278Z,63.62
2019-06-15T23:55:38.567Z,63.75
2019-06-15T23:58:09.012Z,63.96
